sensor_id;sensor_type;location;lat;lon;timestamp;temperature;humidity
49821;DHT22;36893;52.520;13.450;2023-07-02T00:08:12;26.20;70.90
49821;DHT22;36893;52.520;13.450;2023-07-02T00:18:12;26.10;70.90
49821;DHT22;36893;52.520;13.450;2023-07-02T00:28:16;26.10;71.10
49821;DHT22;36893;52.520;13.450;2023-07-02T00:38:18;26.10;71.60
49821;DHT22;36893;52.520;13.450;2023-07-02T00:48:18;26.10;71.20
49821;DHT22;36893;52.520;13.450;2023-07-02T00:58:19;26.10;71.30
49821;DHT22;36893;52.520;13.450;2023-07-02T01:08:21;26.10;71.50
49821;DHT22;36893;52.520;13.450;2023-07-02T01:18:22;26.00;71.50
49821;DHT22;36893;52.520;13.450;2023-07-02T01:28:22;26.00;71.70
49821;DHT22;36893;52.520;13.450;2023-07-02T01:38:25;25.90;71.80
49821;DHT22;36893;52.520;13.450;2023-07-02T01:48:26;25.80;71.90
49821;DHT22;36893;52.520;13.450;2023-07-02T01:58:26;25.80;72.10
49821;DHT22;36893;52.520;13.450;2023-07-02T02:08:27;25.80;72.10
49821;DHT22;36893;52.520;13.450;2023-07-02T02:18:27;25.70;72.10
49821;DHT22;36893;52.520;13.450;2023-07-02T02:28:28;25.70;72.10
49821;DHT22;36893;52.520;13.450;2023-07-02T02:38:29;25.60;72.00
49821;DHT22;36893;52.520;13.450;2023-07-02T02:48:30;25.60;72.00
49821;DHT22;36893;52.520;13.450;2023-07-02T02:58:30;25.60;71.90
49821;DHT22;36893;52.520;13.450;2023-07-02T03:08:31;25.50;71.90
49821;DHT22;36893;52.520;13.450;2023-07-02T03:18:32;25.50;71.90
49821;DHT22;36893;52.520;13.450;2023-07-02T03:28:33;25.50;71.90
49821;DHT22;36893;52.520;13.450;2023-07-02T03:38:35;25.50;71.80
49821;DHT22;36893;52.520;13.450;2023-07-02T03:48:35;25.50;71.70
49821;DHT22;36893;52.520;13.450;2023-07-02T03:58:36;25.40;71.70
49821;DHT22;36893;52.520;13.450;2023-07-02T04:08:36;25.40;71.60
49821;DHT22;36893;52.520;13.450;2023-07-02T04:18:37;25.40;71.50
49821;DHT22;36893;52.520;13.450;2023-07-02T04:28:38;25.40;71.40
49821;DHT22;36893;52.520;13.450;2023-07-02T04:38:38;25.40;71.30
49821;DHT22;36893;52.520;13.450;2023-07-02T04:48:39;25.40;71.20
49821;DHT22;36893;52.520;13.450;2023-07-02T04:58:40;25.30;71.10
49821;DHT22;36893;52.520;13.450;2023-07-02T05:08:40;25.30;70.90
49821;DHT22;36893;52.520;13.450;2023-07-02T05:18:41;25.30;70.80
49821;DHT22;36893;52.520;13.450;2023-07-02T05:28:42;25.30;70.60
49821;DHT22;36893;52.520;13.450;2023-07-02T05:38:42;25.40;70.60
49821;DHT22;36893;52.520;13.450;2023-07-02T05:48:43;25.40;70.30
49821;DHT22;36893;52.520;13.450;2023-07-02T05:58:45;25.40;70.20
49821;DHT22;36893;52.520;13.450;2023-07-02T06:08:46;25.40;70.10
49821;DHT22;36893;52.520;13.450;2023-07-02T06:18:47;25.50;69.80
49821;DHT22;36893;52.520;13.450;2023-07-02T06:28:48;25.40;69.60
49821;DHT22;36893;52.520;13.450;2023-07-02T06:38:48;25.50;69.30
49821;DHT22;36893;52.520;13.450;2023-07-02T06:48:49;25.50;69.00
49821;DHT22;36893;52.520;13.450;2023-07-02T06:58:49;25.50;68.60
49821;DHT22;36893;52.520;13.450;2023-07-02T07:08:50;25.50;68.40
49821;DHT22;36893;52.520;13.450;2023-07-02T07:18:51;25.60;68.10
49821;DHT22;36893;52.520;13.450;2023-07-02T07:28:51;25.60;67.80
49821;DHT22;36893;52.520;13.450;2023-07-02T07:38:54;25.60;67.50
49821;DHT22;36893;52.520;13.450;2023-07-02T07:48:55;25.70;67.40
49821;DHT22;36893;52.520;13.450;2023-07-02T07:58:56;25.70;67.00
49821;DHT22;36893;52.520;13.450;2023-07-02T08:08:56;25.70;66.70
49821;DHT22;36893;52.520;13.450;2023-07-02T08:18:57;25.70;66.50
49821;DHT22;36893;52.520;13.450;2023-07-02T08:28:57;25.70;66.30
49821;DHT22;36893;52.520;13.450;2023-07-02T08:38:58;25.70;66.20
49821;DHT22;36893;52.520;13.450;2023-07-02T08:48:59;25.80;66.20
49821;DHT22;36893;52.520;13.450;2023-07-02T08:58:59;25.90;66.30
49821;DHT22;36893;52.520;13.450;2023-07-02T09:09:04;25.90;66.40
49821;DHT22;36893;52.520;13.450;2023-07-02T09:19:07;26.00;66.50
49821;DHT22;36893;52.520;13.450;2023-07-02T09:29:08;26.00;66.60
49821;DHT22;36893;52.520;13.450;2023-07-02T09:39:13;26.00;66.60
49821;DHT22;36893;52.520;13.450;2023-07-02T09:49:17;26.10;66.70
49821;DHT22;36893;52.520;13.450;2023-07-02T09:59:20;26.20;66.70
49821;DHT22;36893;52.520;13.450;2023-07-02T10:09:33;26.20;66.70
49821;DHT22;36893;52.520;13.450;2023-07-02T10:19:37;26.30;66.70
49821;DHT22;36893;52.520;13.450;2023-07-02T10:29:37;26.30;66.70
49821;DHT22;36893;52.520;13.450;2023-07-02T10:39:39;26.30;66.70
49821;DHT22;36893;52.520;13.450;2023-07-02T10:49:40;26.30;66.80
49821;DHT22;36893;52.520;13.450;2023-07-02T10:59:41;26.40;67.00
49821;DHT22;36893;52.520;13.450;2023-07-02T11:09:50;26.30;66.80
49821;DHT22;36893;52.520;13.450;2023-07-02T11:19:51;26.40;66.90
49821;DHT22;36893;52.520;13.450;2023-07-02T11:29:59;26.40;66.80
49821;DHT22;36893;52.520;13.450;2023-07-02T11:40:00;26.40;66.80
49821;DHT22;36893;52.520;13.450;2023-07-02T11:50:00;26.40;66.70
49821;DHT22;36893;52.520;13.450;2023-07-02T12:00:01;26.50;66.70
49821;DHT22;36893;52.520;13.450;2023-07-02T12:10:02;26.50;66.70
49821;DHT22;36893;52.520;13.450;2023-07-02T12:20:03;26.60;66.60
49821;DHT22;36893;52.520;13.450;2023-07-02T12:30:04;26.70;66.50
49821;DHT22;36893;52.520;13.450;2023-07-02T12:40:06;26.70;66.40
49821;DHT22;36893;52.520;13.450;2023-07-02T12:50:10;26.70;66.10
49821;DHT22;36893;52.520;13.450;2023-07-02T13:00:11;26.70;66.10
49821;DHT22;36893;52.520;13.450;2023-07-02T13:10:12;26.80;66.10
49821;DHT22;36893;52.520;13.450;2023-07-02T13:20:13;26.80;66.00
49821;DHT22;36893;52.520;13.450;2023-07-02T13:30:14;26.80;65.80
49821;DHT22;36893;52.520;13.450;2023-07-02T13:40:15;26.80;65.80
49821;DHT22;36893;52.520;13.450;2023-07-02T13:50:18;26.90;65.70
49821;DHT22;36893;52.520;13.450;2023-07-02T14:00:19;26.90;65.60
49821;DHT22;36893;52.520;13.450;2023-07-02T14:10:20;26.90;65.50
49821;DHT22;36893;52.520;13.450;2023-07-02T14:20:21;26.90;65.30
49821;DHT22;36893;52.520;13.450;2023-07-02T14:30:21;26.90;66.00
49821;DHT22;36893;52.520;13.450;2023-07-02T14:40:22;27.00;65.20
49821;DHT22;36893;52.520;13.450;2023-07-02T14:50:23;27.00;65.00
49821;DHT22;36893;52.520;13.450;2023-07-02T15:00:23;27.00;64.90
49821;DHT22;36893;52.520;13.450;2023-07-02T15:10:24;27.00;64.80
49821;DHT22;36893;52.520;13.450;2023-07-02T15:20:25;27.00;64.80
49821;DHT22;36893;52.520;13.450;2023-07-02T15:30:26;27.00;64.60
49821;DHT22;36893;52.520;13.450;2023-07-02T15:40:27;27.00;64.50
49821;DHT22;36893;52.520;13.450;2023-07-02T15:50:28;27.00;64.40
49821;DHT22;36893;52.520;13.450;2023-07-02T16:00:29;27.00;64.30
49821;DHT22;36893;52.520;13.450;2023-07-02T16:10:30;27.00;64.20
49821;DHT22;36893;52.520;13.450;2023-07-02T16:20:32;27.00;64.10
49821;DHT22;36893;52.520;13.450;2023-07-02T16:30:33;27.00;64.00
49821;DHT22;36893;52.520;13.450;2023-07-02T16:40:34;27.00;63.90
49821;DHT22;36893;52.520;13.450;2023-07-02T16:50:35;27.00;63.70
49821;DHT22;36893;52.520;13.450;2023-07-02T17:00:36;27.00;63.60
49821;DHT22;36893;52.520;13.450;2023-07-02T17:10:36;27.00;63.50
49821;DHT22;36893;52.520;13.450;2023-07-02T17:20:37;26.90;62.30
49821;DHT22;36893;52.520;13.450;2023-07-02T17:30:39;26.80;61.40
49821;DHT22;36893;52.520;13.450;2023-07-02T17:40:40;26.70;60.60
49821;DHT22;36893;52.520;13.450;2023-07-02T17:50:41;26.70;60.00
49821;DHT22;36893;52.520;13.450;2023-07-02T18:00:42;26.70;59.40
49821;DHT22;36893;52.520;13.450;2023-07-02T18:10:46;26.70;59.10
49821;DHT22;36893;52.520;13.450;2023-07-02T18:20:47;26.70;59.10
49821;DHT22;36893;52.520;13.450;2023-07-02T18:30:49;26.70;59.10
49821;DHT22;36893;52.520;13.450;2023-07-02T18:41:20;26.80;59.30
49821;DHT22;36893;52.520;13.450;2023-07-02T18:51:20;26.80;59.30
49821;DHT22;36893;52.520;13.450;2023-07-02T19:01:21;26.90;59.30
49821;DHT22;36893;52.520;13.450;2023-07-02T19:11:21;26.90;59.30
49821;DHT22;36893;52.520;13.450;2023-07-02T19:21:22;26.90;59.30
49821;DHT22;36893;52.520;13.450;2023-07-02T19:31:23;26.90;59.30
49821;DHT22;36893;52.520;13.450;2023-07-02T19:41:24;26.90;59.30
49821;DHT22;36893;52.520;13.450;2023-07-02T19:51:24;26.90;59.30
49821;DHT22;36893;52.520;13.450;2023-07-02T20:01:25;26.80;59.30
49821;DHT22;36893;52.520;13.450;2023-07-02T20:11:26;26.90;59.50
49821;DHT22;36893;52.520;13.450;2023-07-02T20:21:27;26.90;59.50
49821;DHT22;36893;52.520;13.450;2023-07-02T20:31:28;26.80;59.40
49821;DHT22;36893;52.520;13.450;2023-07-02T20:41:28;26.90;59.50
49821;DHT22;36893;52.520;13.450;2023-07-02T20:51:29;26.90;59.50
49821;DHT22;36893;52.520;13.450;2023-07-02T21:01:31;26.90;59.50
49821;DHT22;36893;52.520;13.450;2023-07-02T21:11:32;26.80;59.50
49821;DHT22;36893;52.520;13.450;2023-07-02T21:21:35;26.80;59.50
49821;DHT22;36893;52.520;13.450;2023-07-02T21:31:36;26.80;59.50
49821;DHT22;36893;52.520;13.450;2023-07-02T21:41:37;26.80;59.60
49821;DHT22;36893;52.520;13.450;2023-07-02T21:51:38;26.80;59.50
49821;DHT22;36893;52.520;13.450;2023-07-02T22:01:39;26.80;59.50
49821;DHT22;36893;52.520;13.450;2023-07-02T22:11:40;26.80;59.60
49821;DHT22;36893;52.520;13.450;2023-07-02T22:21:40;26.70;59.50
49821;DHT22;36893;52.520;13.450;2023-07-02T22:31:44;26.80;59.50
49821;DHT22;36893;52.520;13.450;2023-07-02T22:41:45;26.70;59.50
49821;DHT22;36893;52.520;13.450;2023-07-02T22:51:48;26.70;59.50
49821;DHT22;36893;52.520;13.450;2023-07-02T23:01:49;26.70;59.50
49821;DHT22;36893;52.520;13.450;2023-07-02T23:11:50;26.70;59.40
49821;DHT22;36893;52.520;13.450;2023-07-02T23:21:51;26.70;59.40
49821;DHT22;36893;52.520;13.450;2023-07-02T23:31:51;26.70;59.40
49821;DHT22;36893;52.520;13.450;2023-07-02T23:41:52;26.70;59.40
49821;DHT22;36893;52.520;13.450;2023-07-02T23:51:52;26.70;59.40
